Time;durP1;ratioP1;P1;durP2;ratioP2;P2;SDS_P1;SDS_P2;PMS_P1;PMS_P2;Temp;Humidity;BMP_temperature;BMP_pressure;BME280_temperature;BME280_humidity;BME280_pressure;Samples;Min_cycle;Max_cycle;Signal;HPM_P1;HPM_P2
2021/06/12 00:00:34;;;;;;;0.10;0.10;;;20.10;64.80;;;;;;5057631;28;20021;-75
2021/06/12 00:03:01;;;;;;;0.10;0.10;;;20.00;65.10;;;;;;5057720;28;20043;-75
2021/06/12 00:05:27;;;;;;;0.10;0.10;;;20.00;65.30;;;;;;5038657;28;20435;-74
2021/06/12 00:07:54;;;;;;;0.10;0.10;;;19.90;66.10;;;;;;5038409;28;20045;-75
2021/06/12 00:10:26;;;;;;;0.10;0.10;;;19.80;66.50;;;;;;5053952;28;20038;-74
2021/06/12 00:12:52;;;;;;;0.10;0.10;;;19.80;66.60;;;;;;5037301;28;20032;-75
2021/06/12 00:15:21;;;;;;;0.10;0.10;;;19.80;66.40;;;;;;5038426;28;20017;-75
2021/06/12 00:17:47;;;;;;;0.10;0.10;;;19.90;66.20;;;;;;5038480;28;20570;-75
2021/06/12 00:20:23;;;;;;;0.10;0.10;;;19.90;66.30;;;;;;5053308;28;20034;-74
2021/06/12 00:22:49;;;;;;;0.10;0.10;;;19.90;66.30;;;;;;5053759;28;20021;-75
2021/06/12 00:25:16;;;;;;;0.10;0.10;;;19.90;66.40;;;;;;5038342;28;20026;-75
2021/06/12 00:27:42;;;;;;;0.10;0.10;;;19.90;66.40;;;;;;5038151;28;20029;-75
2021/06/12 00:30:10;;;;;;;0.10;0.10;;;19.90;66.40;;;;;;5038369;28;20110;-75
2021/06/12 00:32:36;;;;;;;0.10;0.10;;;20.00;66.00;;;;;;5038470;28;20052;-75
2021/06/12 00:35:04;;;;;;;0.10;0.10;;;20.00;66.60;;;;;;5038018;28;20022;-75
2021/06/12 00:37:29;;;;;;;0.10;0.10;;;19.90;66.60;;;;;;5036594;28;20052;-75
2021/06/12 00:39:55;;;;;;;0.10;0.10;;;20.00;66.50;;;;;;5053446;28;20071;-75
2021/06/12 00:42:21;;;;;;;0.10;0.10;;;20.00;66.30;;;;;;5038153;28;20518;-74
2021/06/12 00:44:46;;;;;;;0.10;0.10;;;20.00;66.50;;;;;;5038293;28;20160;-75
2021/06/12 00:47:12;;;;;;;0.10;0.10;;;20.00;66.50;;;;;;5037874;28;20121;-75
2021/06/12 00:49:38;;;;;;;0.10;0.10;;;20.00;66.20;;;;;;5053138;28;20029;-75
2021/06/12 00:52:04;;;;;;;0.10;0.10;;;19.90;66.90;;;;;;5038232;28;20040;-75
2021/06/12 00:54:30;;;;;;;0.10;0.10;;;19.90;66.80;;;;;;5038100;28;20032;-75
2021/06/12 00:56:57;;;;;;;0.10;0.10;;;20.00;66.50;;;;;;5036393;28;20033;-75
2021/06/12 00:59:25;;;;;;;0.10;0.10;;;20.00;66.60;;;;;;5038805;28;20080;-75
2021/06/12 01:01:51;;;;;;;0.10;0.10;;;20.00;66.00;;;;;;5052550;28;20072;-75
2021/06/12 01:04:17;;;;;;;0.10;0.10;;;19.90;66.90;;;;;;5037583;28;20029;-74
2021/06/12 01:06:45;;;;;;;0.10;0.10;;;19.80;67.00;;;;;;5037747;28;20013;-75
2021/06/12 01:09:11;;;;;;;0.10;0.10;;;19.90;67.60;;;;;;5035900;28;20107;-75
2021/06/12 01:12:08;;;;;;;0.10;0.10;;;19.90;67.00;;;;;;5037476;28;20025;-75
2021/06/12 01:14:40;;;;;;;0.13;0.10;;;19.90;67.40;;;;;;5036842;28;20128;-74
2021/06/12 01:17:37;;;;;;;0.10;0.10;;;19.90;66.90;;;;;;5037404;28;20026;-75
2021/06/12 01:20:24;;;;;;;0.10;0.10;;;19.90;67.30;;;;;;5037571;28;20021;-75
2021/06/12 01:23:05;;;;;;;0.10;0.10;;;19.80;67.20;;;;;;5037296;28;20022;-75
2021/06/12 01:26:03;;;;;;;0.10;0.10;;;19.90;67.50;;;;;;5061954;28;20070;-75
2021/06/12 01:28:57;;;;;;;0.10;0.10;;;19.80;67.30;;;;;;5068115;28;20033;-75
2021/06/12 01:31:24;;;;;;;0.10;0.10;;;19.90;67.10;;;;;;5037270;28;20033;-75
2021/06/12 01:33:52;;;;;;;0.10;0.10;;;19.90;67.20;;;;;;5035513;28;20037;-74
2021/06/12 01:36:18;;;;;;;0.10;0.10;;;19.80;67.50;;;;;;5052238;28;20029;-75
2021/06/12 01:38:48;;;;;;;0.10;0.10;;;19.80;67.80;;;;;;5051913;28;20052;-74
2021/06/12 01:41:16;;;;;;;0.10;0.10;;;19.80;68.10;;;;;;5036870;28;20539;-75
2021/06/12 01:43:43;;;;;;;0.10;0.10;;;19.70;68.20;;;;;;5036743;28;20367;-75
2021/06/12 01:46:12;;;;;;;0.10;0.10;;;19.70;68.00;;;;;;5051906;28;20056;-75
2021/06/12 01:48:41;;;;;;;0.10;0.10;;;19.80;67.80;;;;;;5036634;28;20038;-75
2021/06/12 01:51:08;;;;;;;0.10;0.10;;;19.80;67.70;;;;;;5036694;28;20475;-75
2021/06/12 01:53:35;;;;;;;0.10;0.05;;;19.80;67.70;;;;;;5036602;28;20026;-75
2021/06/12 01:56:04;;;;;;;0.20;0.10;;;19.70;68.40;;;;;;5051667;28;20029;-74
2021/06/12 01:58:30;;;;;;;0.10;0.10;;;19.70;68.10;;;;;;5038450;28;20033;-75
2021/06/12 02:00:57;;;;;;;0.08;0.05;;;19.70;68.00;;;;;;5040984;28;20136;-75
2021/06/12 02:03:24;;;;;;;0.10;0.10;;;19.70;68.10;;;;;;5036599;28;20033;-75
2021/06/12 02:05:51;;;;;;;0.10;0.10;;;19.70;68.50;;;;;;5051585;28;20029;-75
2021/06/12 02:08:18;;;;;;;0.10;0.10;;;19.70;68.50;;;;;;5036527;28;20474;-75
2021/06/12 02:10:47;;;;;;;0.10;0.10;;;19.60;68.50;;;;;;5036405;28;20028;-75
2021/06/12 02:13:15;;;;;;;0.10;0.10;;;19.60;68.50;;;;;;5035723;28;20018;-74
2021/06/12 02:15:41;;;;;;;0.10;0.10;;;19.60;68.50;;;;;;5051352;28;20044;-75
2021/06/12 02:18:09;;;;;;;0.10;0.10;;;19.50;68.80;;;;;;5036062;28;20040;-75
2021/06/12 02:20:37;;;;;;;0.10;0.10;;;19.50;68.80;;;;;;5036313;28;20030;-74
2021/06/12 02:23:06;;;;;;;0.10;0.10;;;19.50;68.40;;;;;;5036136;28;20021;-75
2021/06/12 02:25:32;;;;;;;0.10;0.10;;;19.50;68.80;;;;;;5036392;28;20021;-74
2021/06/12 02:28:01;;;;;;;0.10;0.10;;;19.40;68.60;;;;;;5036029;28;20077;-75
2021/06/12 02:30:30;;;;;;;0.10;0.10;;;19.40;68.60;;;;;;5036133;28;20395;-75
2021/06/12 02:33:02;;;;;;;0.10;0.10;;;19.40;68.90;;;;;;5036354;28;20029;-75
2021/06/12 02:35:28;;;;;;;0.10;0.10;;;19.40;68.80;;;;;;5035873;28;20055;-75
2021/06/12 02:37:54;;;;;;;0.10;0.10;;;19.40;68.70;;;;;;5035769;28;20040;-75
2021/06/12 02:40:20;;;;;;;0.10;0.10;;;19.30;68.90;;;;;;5035926;28;20136;-75
2021/06/12 02:42:45;;;;;;;0.10;0.10;;;19.30;69.10;;;;;;5034829;28;20049;-75
2021/06/12 02:45:12;;;;;;;0.10;0.10;;;19.30;69.20;;;;;;5035696;28;20018;-75
2021/06/12 02:47:46;;;;;;;0.10;0.10;;;19.30;68.80;;;;;;5034121;28;20370;-74
2021/06/12 02:50:14;;;;;;;0.10;0.10;;;19.30;69.00;;;;;;5034533;28;20021;-75
2021/06/12 02:52:43;;;;;;;0.10;0.10;;;19.30;69.30;;;;;;5051063;28;20066;-75
2021/06/12 02:55:11;;;;;;;0.10;0.10;;;19.20;69.30;;;;;;5035835;28;20018;-75
2021/06/12 02:57:44;;;;;;;0.10;0.10;;;19.20;69.40;;;;;;5035679;28;20025;-74
2021/06/12 03:00:11;;;;;;;0.10;0.10;;;19.20;69.60;;;;;;5048413;28;20163;-75
2021/06/12 03:02:40;;;;;;;0.10;0.10;;;19.20;69.70;;;;;;5035539;28;20105;-74
2021/06/12 03:05:12;;;;;;;0.10;0.10;;;19.20;69.60;;;;;;5050632;28;20034;-75
2021/06/12 03:07:39;;;;;;;0.10;0.10;;;19.20;69.90;;;;;;5035303;28;20060;-75
2021/06/12 03:10:05;;;;;;;0.10;0.10;;;19.20;69.30;;;;;;5035677;28;20068;-75
2021/06/12 03:12:32;;;;;;;0.10;0.10;;;19.20;69.10;;;;;;5034130;28;20391;-75
2021/06/12 03:15:00;;;;;;;0.10;0.10;;;19.20;69.10;;;;;;5035506;28;20030;-74
2021/06/12 03:17:27;;;;;;;0.10;0.10;;;19.20;69.40;;;;;;5035727;28;20022;-75
2021/06/12 03:19:55;;;;;;;0.10;0.10;;;19.00;69.70;;;;;;5035145;28;20025;-75
2021/06/12 03:22:22;;;;;;;0.10;0.10;;;19.00;70.00;;;;;;5050570;28;20087;-74
2021/06/12 03:24:48;;;;;;;0.10;0.10;;;19.10;69.40;;;;;;5052203;28;20028;-75
2021/06/12 03:27:14;;;;;;;0.10;0.10;;;19.10;69.60;;;;;;5038111;28;20017;-75
2021/06/12 03:29:40;;;;;;;0.10;0.10;;;19.00;69.50;;;;;;5039706;28;20034;-75
2021/06/12 03:32:07;;;;;;;0.10;0.10;;;19.10;69.60;;;;;;5039276;28;20025;-75
2021/06/12 03:34:33;;;;;;;0.10;0.10;;;19.00;69.40;;;;;;5039144;28;20030;-75
2021/06/12 03:37:00;;;;;;;0.10;0.10;;;19.00;69.80;;;;;;5039169;28;20108;-75
2021/06/12 03:39:25;;;;;;;0.10;0.10;;;19.00;69.60;;;;;;5039027;28;20480;-74
2021/06/12 03:41:52;;;;;;;0.10;0.10;;;18.90;69.30;;;;;;5054450;28;20055;-75
2021/06/12 03:44:20;;;;;;;0.10;0.10;;;18.80;70.20;;;;;;5046270;28;20029;-74
2021/06/12 03:46:49;;;;;;;0.10;0.10;;;18.80;70.00;;;;;;5057569;28;20017;-75
2021/06/12 03:49:16;;;;;;;0.10;0.10;;;18.80;69.80;;;;;;5058773;28;20475;-75
2021/06/12 03:51:42;;;;;;;0.10;0.10;;;18.80;70.20;;;;;;5058962;28;20063;-75
2021/06/12 03:54:08;;;;;;;0.10;0.10;;;18.80;69.90;;;;;;5053559;28;20025;-75
2021/06/12 03:56:37;;;;;;;0.10;0.10;;;18.80;69.70;;;;;;5038943;28;20021;-75
2021/06/12 03:59:05;;;;;;;0.10;0.10;;;18.90;69.50;;;;;;5045271;28;20016;-75
2021/06/12 04:01:31;;;;;;;0.10;0.10;;;18.80;69.70;;;;;;5048370;28;20080;-74
2021/06/12 04:03:56;;;;;;;0.10;0.10;;;18.80;69.40;;;;;;5038714;28;20076;-75
2021/06/12 04:06:22;;;;;;;0.10;0.10;;;18.80;69.80;;;;;;5039031;28;20029;-75
2021/06/12 04:08:48;;;;;;;0.10;0.10;;;18.80;69.80;;;;;;5037250;28;20073;-75
2021/06/12 04:11:14;;;;;;;0.10;0.10;;;18.80;69.80;;;;;;5037270;28;20507;-75
2021/06/12 04:13:40;;;;;;;0.10;0.10;;;18.80;69.70;;;;;;5038952;28;20045;-75
2021/06/12 04:16:07;;;;;;;0.10;0.10;;;18.80;69.80;;;;;;5038661;28;20163;-75
2021/06/12 04:18:33;;;;;;;0.10;0.10;;;18.80;69.70;;;;;;5037050;28;20518;-75
2021/06/12 04:20:59;;;;;;;0.10;0.10;;;18.80;69.40;;;;;;5053595;28;20061;-75
2021/06/12 04:23:25;;;;;;;0.10;0.10;;;18.80;69.90;;;;;;5037297;28;20018;-74
2021/06/12 04:25:51;;;;;;;0.10;0.10;;;18.80;70.20;;;;;;5037031;28;20678;-75
2021/06/12 04:28:16;;;;;;;0.10;0.10;;;18.80;69.90;;;;;;5038385;28;20029;-75
2021/06/12 04:30:42;;;;;;;0.10;0.10;;;18.80;69.80;;;;;;5038319;28;20033;-75
2021/06/12 04:33:08;;;;;;;0.10;0.10;;;18.80;69.90;;;;;;5051356;28;20091;-75
2021/06/12 04:35:34;;;;;;;0.10;0.10;;;18.80;70.30;;;;;;5053390;28;20048;-75
2021/06/12 04:38:00;;;;;;;0.10;0.10;;;18.70;70.30;;;;;;5037764;28;20048;-75
2021/06/12 04:40:28;;;;;;;0.10;0.10;;;18.70;70.40;;;;;;5053139;28;20140;-75
2021/06/12 04:42:54;;;;;;;0.10;0.10;;;18.70;70.40;;;;;;5053433;28;20029;-75
2021/06/12 04:45:20;;;;;;;0.17;0.17;;;18.70;70.40;;;;;;5038418;28;20125;-75
2021/06/12 04:47:46;;;;;;;0.10;0.10;;;18.70;70.20;;;;;;5037936;28;20112;-75
2021/06/12 04:50:11;;;;;;;0.10;0.10;;;18.70;70.50;;;;;;5037919;28;20060;-75
2021/06/12 04:52:38;;;;;;;0.10;0.10;;;18.70;69.90;;;;;;5037851;28;20017;-75
2021/06/12 04:55:06;;;;;;;0.10;0.10;;;18.70;70.20;;;;;;5053067;28;20488;-75
2021/06/12 04:57:32;;;;;;;0.10;0.10;;;18.70;70.80;;;;;;5038167;28;20192;-75
2021/06/12 04:59:58;;;;;;;0.10;0.10;;;18.70;70.70;;;;;;5051703;28;20059;-75
2021/06/12 05:02:23;;;;;;;0.10;0.10;;;18.70;70.80;;;;;;5056229;28;20092;-75
2021/06/12 05:04:49;;;;;;;0.10;0.10;;;18.70;70.60;;;;;;5053945;28;20017;-75
2021/06/12 05:07:15;;;;;;;0.10;0.10;;;18.70;70.50;;;;;;5070612;28;20123;-76
2021/06/12 05:09:40;;;;;;;0.10;0.10;;;18.80;70.30;;;;;;5052135;28;20033;-75
2021/06/12 05:12:06;;;;;;;0.10;0.10;;;18.80;70.30;;;;;;5036820;28;20059;-75
2021/06/12 05:14:32;;;;;;;0.10;0.10;;;18.80;69.80;;;;;;5036622;28;20021;-75
2021/06/12 05:17:01;;;;;;;0.10;0.10;;;18.80;70.10;;;;;;5052171;28;20029;-75
2021/06/12 05:19:27;;;;;;;0.10;0.10;;;18.80;70.20;;;;;;5036595;28;20032;-75
2021/06/12 05:21:53;;;;;;;0.10;0.10;;;18.80;70.40;;;;;;5051740;28;20499;-75
2021/06/12 05:24:19;;;;;;;0.10;0.10;;;18.80;70.10;;;;;;5037212;28;20022;-75
2021/06/12 05:26:45;;;;;;;0.10;0.10;;;18.80;70.50;;;;;;5035840;28;20042;-75
2021/06/12 05:29:11;;;;;;;0.10;0.10;;;18.80;70.50;;;;;;5037177;28;20032;-75
2021/06/12 05:31:37;;;;;;;0.10;0.10;;;18.80;70.70;;;;;;5037127;28;20171;-75
2021/06/12 05:34:03;;;;;;;0.10;0.10;;;18.80;70.60;;;;;;5037516;28;20034;-75
2021/06/12 05:36:31;;;;;;;0.10;0.10;;;18.80;70.40;;;;;;5037096;28;20037;-75
2021/06/12 05:38:57;;;;;;;0.10;0.10;;;18.90;70.80;;;;;;5037272;28;20017;-75
2021/06/12 05:41:22;;;;;;;0.10;0.10;;;18.90;70.40;;;;;;5037791;28;20025;-75
2021/06/12 05:43:48;;;;;;;0.10;0.10;;;18.90;70.00;;;;;;5055188;28;20021;-74
2021/06/12 05:46:14;;;;;;;0.00;0.00;;;19.00;69.80;;;;;;5055356;28;20055;-74
2021/06/12 05:48:39;;;;;;;0.10;0.10;;;19.00;70.50;;;;;;5052778;28;20491;-74
2021/06/12 05:51:05;;;;;;;0.20;0.10;;;19.00;69.80;;;;;;5054193;28;20067;-75
2021/06/12 05:53:31;;;;;;;0.10;0.10;;;19.00;69.90;;;;;;5050311;28;20802;-76
2021/06/12 05:55:57;;;;;;;0.10;0.10;;;19.00;70.20;;;;;;5070966;28;20037;-75
2021/06/12 05:58:23;;;;;;;0.10;0.10;;;19.00;70.40;;;;;;5055184;28;20400;-74
2021/06/12 06:00:49;;;;;;;0.10;0.10;;;19.00;70.10;;;;;;5052600;28;20040;-76
2021/06/12 06:03:15;;;;;;;0.10;0.10;;;19.00;70.50;;;;;;5048897;28;20048;-74
2021/06/12 06:05:41;;;;;;;0.10;0.10;;;19.10;70.30;;;;;;5038319;28;20460;-75
2021/06/12 06:08:06;;;;;;;0.10;0.10;;;19.00;70.30;;;;;;5051376;28;20099;-76
2021/06/12 06:10:32;;;;;;;0.10;0.10;;;19.10;70.20;;;;;;5054351;28;20559;-76
2021/06/12 06:13:02;;;;;;;0.17;0.10;;;19.10;69.90;;;;;;5052185;28;20869;-74
2021/06/12 06:15:28;;;;;;;;;;;19.20;69.60;;;;;;5054217;28;20056;-74
2021/06/12 06:17:54;;;;;;;0.10;0.10;;;19.20;69.70;;;;;;5053714;28;19947;-75
2021/06/12 06:20:19;;;;;;;0.10;0.10;;;19.30;69.60;;;;;;5052985;28;20025;-75
2021/06/12 06:22:45;;;;;;;0.10;0.10;;;19.30;69.40;;;;;;5051754;28;20028;-74
2021/06/12 06:25:11;;;;;;;0.10;0.10;;;19.30;69.00;;;;;;5053610;28;20025;-73
2021/06/12 18:40:47;;;;;;;0.00;0.00;;;21.10;56.30;;;;;;5078888;28;20396;-77
2021/06/12 18:43:14;;;;;;;0.00;0.00;;;21.20;56.10;;;;;;5075852;28;20036;-76
2021/06/12 18:45:41;;;;;;;0.00;0.00;;;21.40;56.00;;;;;;5078353;28;20026;-77
2021/06/12 18:48:08;;;;;;;0.00;0.00;;;21.60;55.40;;;;;;5078139;28;20028;-76
2021/06/12 18:50:34;;;;;;;0.00;0.00;;;21.90;55.00;;;;;;5078791;28;20047;-76
2021/06/12 18:53:00;;;;;;;0.00;0.00;;;22.10;54.60;;;;;;5077599;28;20086;-76
2021/06/12 18:55:26;;;;;;;0.10;0.10;;;22.20;54.20;;;;;;5076742;28;20024;-77
2021/06/12 18:57:52;;;;;;;0.00;0.00;;;22.20;53.90;;;;;;5076593;28;20048;-77
2021/06/12 19:00:19;;;;;;;0.10;0.10;;;22.30;53.80;;;;;;5086364;28;20033;-76
2021/06/12 19:02:45;;;;;;;0.10;0.10;;;22.30;53.70;;;;;;5075343;28;20120;-79
2021/06/12 19:05:13;;;;;;;0.00;0.00;;;22.30;53.90;;;;;;5070043;28;20139;-78
2021/06/12 19:07:39;;;;;;;0.10;0.10;;;22.20;54.10;;;;;;5077857;28;20032;-81
2021/06/12 19:10:08;;;;;;;0.03;0.03;;;22.10;54.40;;;;;;5072517;28;20024;-78
2021/06/12 19:12:34;;;;;;;0.10;0.10;;;22.20;54.20;;;;;;5069013;28;20071;-78
2021/06/12 19:15:00;;;;;;;0.00;0.00;;;22.20;54.00;;;;;;5071228;28;20100;-78
2021/06/12 19:17:26;;;;;;;0.00;0.00;;;22.10;54.20;;;;;;5084025;28;20166;-80
2021/06/12 19:19:51;;;;;;;0.10;0.10;;;22.00;54.30;;;;;;5074309;28;20028;-80
2021/06/12 19:22:17;;;;;;;0.00;0.00;;;22.00;54.30;;;;;;5083265;28;20058;-80
2021/06/12 19:24:45;;;;;;;0.00;0.00;;;21.90;54.60;;;;;;5084429;28;20028;-79
2021/06/12 19:27:10;;;;;;;0.10;0.10;;;21.90;54.60;;;;;;5080666;28;20040;-78
2021/06/12 19:29:36;;;;;;;0.10;0.10;;;21.90;54.90;;;;;;5068420;28;20029;-79
2021/06/12 19:32:02;;;;;;;0.00;0.00;;;21.80;54.90;;;;;;5068416;28;20028;-79
2021/06/12 19:34:31;;;;;;;0.10;0.10;;;21.80;55.10;;;;;;5071271;28;20048;-79
2021/06/12 19:37:00;;;;;;;0.10;0.10;;;21.70;55.20;;;;;;5081170;28;20067;-79
2021/06/12 19:39:27;;;;;;;0.10;0.10;;;21.60;55.40;;;;;;5087365;28;20099;-79
2021/06/12 19:41:53;;;;;;;0.10;0.10;;;21.60;55.60;;;;;;5085777;28;20032;-79
2021/06/12 19:44:19;;;;;;;0.05;0.05;;;21.50;55.80;;;;;;5089927;28;20155;-79
2021/06/12 19:46:46;;;;;;;0.10;0.10;;;21.40;55.90;;;;;;5080687;28;20029;-79
2021/06/12 19:49:13;;;;;;;0.10;0.10;;;21.40;56.10;;;;;;5081615;28;20043;-79
2021/06/12 19:51:39;;;;;;;0.10;0.10;;;21.30;56.20;;;;;;5070822;28;20368;-78
2021/06/12 19:54:06;;;;;;;0.10;0.10;;;21.30;56.30;;;;;;5067016;28;20037;-79
2021/06/12 19:56:33;;;;;;;0.03;0.03;;;21.20;56.50;;;;;;5069766;28;20830;-78
2021/06/12 19:58:59;;;;;;;0.10;0.10;;;21.10;56.70;;;;;;5065593;28;20070;-78
2021/06/12 20:01:26;;;;;;;0.10;0.10;;;21.00;56.50;;;;;;5066400;28;20024;-77
2021/06/12 20:03:52;;;;;;;0.10;0.10;;;21.00;56.70;;;;;;5062819;28;20119;-78
2021/06/12 20:06:18;;;;;;;0.00;0.00;;;20.80;56.90;;;;;;5064545;28;20143;-78
2021/06/12 20:08:44;;;;;;;0.10;0.10;;;20.80;57.10;;;;;;5066278;28;20036;-78
2021/06/12 20:11:10;;;;;;;0.10;0.10;;;20.80;57.10;;;;;;5070691;28;20021;-78
2021/06/12 20:13:37;;;;;;;0.05;0.05;;;20.70;57.30;;;;;;5067864;28;20017;-79
2021/06/12 20:16:03;;;;;;;0.10;0.10;;;20.70;57.30;;;;;;5062512;28;20025;-75
2021/06/12 20:18:29;;;;;;;0.00;0.00;;;20.60;57.10;;;;;;5063024;28;20060;-76
2021/06/12 20:20:55;;;;;;;0.10;0.10;;;20.50;57.20;;;;;;5063413;28;20044;-76
2021/06/12 20:23:22;;;;;;;0.10;0.10;;;20.50;57.40;;;;;;5064802;28;20040;-76
2021/06/12 20:25:49;;;;;;;0.10;0.10;;;20.40;57.50;;;;;;5064237;28;20074;-77
2021/06/12 20:28:15;;;;;;;0.10;0.10;;;20.40;57.60;;;;;;5066634;28;20024;-77
2021/06/12 20:30:41;;;;;;;0.10;0.10;;;20.30;57.80;;;;;;5065119;28;20033;-76
2021/06/12 20:33:06;;;;;;;0.10;0.10;;;20.10;58.40;;;;;;5068572;28;20025;-75
2021/06/12 20:35:32;;;;;;;0.05;0.05;;;20.10;58.40;;;;;;5071293;28;20024;-77
2021/06/12 20:37:58;;;;;;;0.10;0.10;;;20.10;58.60;;;;;;5070421;28;20024;-76
2021/06/12 20:40:24;;;;;;;0.10;0.10;;;20.00;58.80;;;;;;5066130;28;20094;-77
2021/06/12 20:42:49;;;;;;;0.10;0.10;;;20.00;58.90;;;;;;5063138;28;20029;-77
2021/06/12 20:45:15;;;;;;;0.10;0.10;;;19.90;59.10;;;;;;5062210;28;20071;-76
2021/06/12 20:47:41;;;;;;;0.10;0.10;;;19.90;59.20;;;;;;5062327;28;20028;-76
2021/06/12 20:50:09;;;;;;;0.10;0.10;;;19.80;59.30;;;;;;5062018;28;20028;-77
2021/06/12 20:52:37;;;;;;;0.10;0.10;;;19.80;59.40;;;;;;5064575;28;20470;-77
2021/06/12 20:55:04;;;;;;;0.10;0.10;;;19.70;59.50;;;;;;5056031;28;20023;-76
2021/06/12 20:57:30;;;;;;;0.10;0.10;;;19.60;59.70;;;;;;5069478;28;20017;-76
2021/06/12 20:59:55;;;;;;;0.10;0.10;;;19.50;59.90;;;;;;5064515;28;20029;-76
2021/06/12 21:02:21;;;;;;;0.10;0.10;;;19.50;59.90;;;;;;5060225;28;20024;-76
2021/06/12 21:04:49;;;;;;;0.10;0.10;;;19.50;60.10;;;;;;5059683;28;20040;-76
2021/06/12 21:07:15;;;;;;;0.10;0.10;;;19.40;60.10;;;;;;5072970;28;20024;-76
2021/06/12 21:09:41;;;;;;;0.10;0.10;;;19.40;60.30;;;;;;5068076;28;20497;-76
2021/06/12 21:12:07;;;;;;;0.10;0.10;;;19.40;60.70;;;;;;5066341;28;20036;-76
2021/06/12 21:14:32;;;;;;;0.10;0.10;;;19.30;61.00;;;;;;5062528;28;20096;-76
2021/06/12 21:16:58;;;;;;;0.10;0.10;;;19.30;61.20;;;;;;5066019;28;20021;-76
2021/06/12 21:19:24;;;;;;;0.10;0.10;;;19.20;61.70;;;;;;5064821;28;20025;-76
2021/06/12 21:21:49;;;;;;;0.10;0.10;;;19.10;62.30;;;;;;5064825;28;20997;-76
2021/06/12 21:24:15;;;;;;;0.10;0.10;;;19.10;62.20;;;;;;5065691;28;20031;-76
2021/06/12 21:26:41;;;;;;;0.10;0.10;;;19.10;62.60;;;;;;5064909;28;20028;-76
2021/06/12 21:29:06;;;;;;;0.10;0.10;;;19.10;63.00;;;;;;5061706;28;20029;-76
2021/06/12 21:31:33;;;;;;;0.10;0.10;;;19.00;63.10;;;;;;5063628;28;20028;-76
2021/06/12 21:33:58;;;;;;;0.10;0.10;;;19.00;63.00;;;;;;5055192;28;20025;-76
2021/06/12 21:36:24;;;;;;;0.10;0.10;;;19.00;63.10;;;;;;5061627;28;20027;-76
2021/06/12 21:38:52;;;;;;;0.10;0.10;;;19.00;63.20;;;;;;5068905;28;20051;-76
2021/06/12 21:41:18;;;;;;;0.10;0.10;;;19.00;63.30;;;;;;5055521;28;20035;-76
2021/06/12 21:43:44;;;;;;;0.10;0.10;;;19.00;63.50;;;;;;5055820;28;20029;-76
2021/06/12 21:46:10;;;;;;;0.10;0.10;;;19.00;63.50;;;;;;5070174;28;20056;-76
2021/06/12 21:48:36;;;;;;;0.20;0.10;;;19.00;63.80;;;;;;5056001;28;20104;-76
2021/06/12 21:51:01;;;;;;;0.30;0.10;;;19.00;63.60;;;;;;5071071;28;20127;-76
2021/06/12 21:53:27;;;;;;;0.10;0.10;;;19.00;63.70;;;;;;5055406;28;20032;-76
2021/06/12 21:55:53;;;;;;;0.10;0.10;;;18.90;64.20;;;;;;5071091;28;20025;-76
2021/06/12 21:58:18;;;;;;;0.20;0.10;;;18.80;64.50;;;;;;5056388;28;20025;-76
2021/06/12 22:00:56;;;;;;;0.20;0.10;;;18.80;65.10;;;;;;5091879;28;20046;-76
2021/06/12 22:03:22;;;;;;;0.10;0.10;;;18.80;64.70;;;;;;5074297;28;20067;-76
2021/06/12 22:05:47;;;;;;;0.10;0.10;;;18.60;65.80;;;;;;5075446;28;20024;-76
2021/06/12 22:08:13;;;;;;;0.10;0.10;;;18.50;66.00;;;;;;5074400;28;20085;-76
2021/06/12 22:10:41;;;;;;;0.10;0.10;;;18.60;65.80;;;;;;5069361;28;20040;-75
2021/06/12 22:13:10;;;;;;;0.10;0.10;;;18.60;65.70;;;;;;5061959;28;20558;-76
2021/06/12 22:15:35;;;;;;;0.10;0.10;;;18.60;65.60;;;;;;5073943;28;20024;-76
2021/06/12 22:18:01;;;;;;;0.20;0.13;;;18.50;65.70;;;;;;5069788;28;20032;-76
2021/06/12 22:20:45;;;;;;;0.10;0.10;;;18.60;65.40;;;;;;5055379;28;20429;-76
2021/06/12 22:23:11;;;;;;;0.10;0.10;;;18.60;65.60;;;;;;5054191;28;20060;-76
2021/06/12 22:25:37;;;;;;;0.10;0.10;;;18.60;65.50;;;;;;5054882;28;20040;-76
2021/06/12 22:28:03;;;;;;;0.10;0.10;;;18.60;65.20;;;;;;5066989;28;20033;-76
2021/06/12 22:30:29;;;;;;;0.15;0.15;;;18.60;65.60;;;;;;5055936;28;20025;-76
2021/06/12 22:32:55;;;;;;;0.10;0.10;;;18.50;65.60;;;;;;5067904;28;20032;-75
2021/06/12 22:35:22;;;;;;;0.20;0.20;;;18.50;65.50;;;;;;5070539;28;20029;-76
2021/06/12 22:37:49;;;;;;;0.10;0.10;;;18.50;65.60;;;;;;5070368;28;20499;-76
2021/06/12 22:40:16;;;;;;;0.10;0.10;;;18.40;65.60;;;;;;5070261;28;20053;-76
2021/06/12 22:42:42;;;;;;;0.20;0.20;;;18.50;65.60;;;;;;5070164;28;20082;-76
2021/06/12 22:45:08;;;;;;;0.20;0.20;;;18.30;65.70;;;;;;5055070;28;20032;-76
2021/06/12 22:47:34;;;;;;;0.10;0.10;;;18.30;65.60;;;;;;5053633;28;20036;-76
2021/06/12 22:50:00;;;;;;;0.20;0.10;;;18.30;65.70;;;;;;5053591;28;20029;-76
2021/06/12 22:52:26;;;;;;;0.20;0.20;;;18.30;66.00;;;;;;5086826;28;20021;-76
2021/06/12 22:54:51;;;;;;;0.20;0.20;;;18.20;66.30;;;;;;5055012;28;20025;-76
2021/06/12 22:57:17;;;;;;;0.15;0.15;;;18.20;66.40;;;;;;5054810;28;20142;-76
2021/06/12 22:59:43;;;;;;;0.10;0.10;;;18.20;66.30;;;;;;5079226;28;20111;-76
2021/06/12 23:02:08;;;;;;;0.20;0.20;;;18.20;66.20;;;;;;5077942;28;20110;-76
2021/06/12 23:04:34;;;;;;;0.17;0.10;;;18.20;65.60;;;;;;5074557;28;20036;-76
2021/06/12 23:07:00;;;;;;;0.10;0.10;;;18.30;66.10;;;;;;5068948;28;20061;-76
2021/06/12 23:09:25;;;;;;;0.10;0.10;;;18.30;66.00;;;;;;5070086;28;20044;-76
2021/06/12 23:11:51;;;;;;;0.10;0.10;;;18.20;66.20;;;;;;5054815;28;20021;-76
2021/06/12 23:14:17;;;;;;;0.17;0.17;;;18.20;66.20;;;;;;5058650;28;20457;-76
2021/06/12 23:16:42;;;;;;;0.10;0.10;;;18.10;66.20;;;;;;5074787;28;20021;-75
2021/06/12 23:19:08;;;;;;;0.10;0.10;;;18.00;66.20;;;;;;5074720;28;20055;-76
2021/06/12 23:21:34;;;;;;;0.20;0.20;;;18.00;66.50;;;;;;5074717;28;20025;-76
2021/06/12 23:23:59;;;;;;;0.10;0.10;;;18.00;66.40;;;;;;5068936;28;20039;-76
2021/06/12 23:26:25;;;;;;;0.20;0.20;;;18.00;66.80;;;;;;5055315;28;20021;-76
2021/06/12 23:28:51;;;;;;;0.20;0.20;;;17.90;66.90;;;;;;5057361;28;20032;-76
2021/06/12 23:31:16;;;;;;;0.20;0.20;;;17.90;67.00;;;;;;5061406;28;20024;-76
2021/06/12 23:33:45;;;;;;;0.20;0.20;;;17.90;67.00;;;;;;5061631;28;20056;-76
2021/06/12 23:36:11;;;;;;;0.10;0.10;;;17.90;66.90;;;;;;5058284;28;20154;-76
2021/06/12 23:38:37;;;;;;;0.20;0.20;;;17.90;67.40;;;;;;5058248;28;20140;-76
2021/06/12 23:41:04;;;;;;;0.10;0.10;;;17.80;67.50;;;;;;5058292;28;20056;-76
2021/06/12 23:43:29;;;;;;;0.10;0.10;;;17.80;67.10;;;;;;5076042;28;20039;-76
2021/06/12 23:45:55;;;;;;;0.20;0.20;;;17.90;67.10;;;;;;5076972;28;20021;-76
2021/06/12 23:48:21;;;;;;;0.10;0.10;;;17.80;67.00;;;;;;5068012;28;20507;-75
2021/06/12 23:50:46;;;;;;;0.20;0.20;;;17.70;67.50;;;;;;5056827;28;20025;-75
2021/06/12 23:53:12;;;;;;;0.20;0.20;;;17.70;67.80;;;;;;5056637;28;20557;-75
2021/06/12 23:55:40;;;;;;;0.20;0.20;;;17.70;67.90;;;;;;5056494;28;20091;-76
2021/06/12 23:58:06;;;;;;;0.30;0.20;;;17.70;68.00;;;;;;5057871;28;20056;-76
